createdAt,value
2023-11-06T00:00:01.220Z,1.30
2023-11-06T00:02:29.698Z,1.23
2023-11-06T00:04:59.325Z,1.65
2023-11-06T00:07:26.170Z,1.70
2023-11-06T00:09:52.991Z,1.63
2023-11-06T00:12:19.599Z,1.63
2023-11-06T00:14:46.407Z,1.50
2023-11-06T00:17:13.137Z,1.30
2023-11-06T00:19:40.041Z,1.30
2023-11-06T00:22:07.496Z,1.67
2023-11-06T00:24:34.256Z,1.35
2023-11-06T00:27:00.854Z,1.15
2023-11-06T00:29:31.229Z,1.40
2023-11-06T00:31:57.953Z,1.88
2023-11-06T00:34:24.656Z,0.83
2023-11-06T00:36:51.298Z,1.05
2023-11-06T00:39:17.944Z,1.00
2023-11-06T00:41:44.478Z,1.42
2023-11-06T00:44:11.130Z,1.00
2023-11-06T00:46:37.703Z,1.10
2023-11-06T00:49:04.573Z,0.80
2023-11-06T00:51:31.165Z,1.10
2023-11-06T00:53:57.786Z,1.02
2023-11-06T00:56:24.533Z,0.93
2023-11-06T00:58:51.043Z,0.93
2023-11-06T01:01:17.653Z,0.95
2023-11-06T01:03:44.286Z,0.88
2023-11-06T01:06:11.561Z,1.17
2023-11-06T01:08:38.128Z,1.40
2023-11-06T01:11:05.070Z,0.90
2023-11-06T01:13:31.581Z,0.90
2023-11-06T01:15:58.437Z,0.80
2023-11-06T01:18:25.198Z,1.30
2023-11-06T01:20:51.760Z,0.70
2023-11-06T01:23:18.450Z,1.33
2023-11-06T01:25:45.741Z,0.93
2023-11-06T01:28:12.745Z,0.98
2023-11-06T01:30:39.629Z,1.05
2023-11-06T01:33:06.429Z,0.98
2023-11-06T01:35:33.821Z,0.90
2023-11-06T01:38:02.347Z,0.85
2023-11-06T01:40:32.246Z,0.60
2023-11-06T01:43:08.645Z,0.98
2023-11-06T01:45:36.811Z,0.95
2023-11-06T01:48:04.968Z,1.33
2023-11-06T01:50:34.843Z,0.80
2023-11-06T01:53:05.046Z,0.70
2023-11-06T01:55:32.332Z,1.08
2023-11-06T01:57:58.973Z,0.90
2023-11-06T02:00:28.149Z,1.33
2023-11-06T02:02:54.842Z,1.13
2023-11-06T02:05:21.463Z,1.02
2023-11-06T02:07:48.044Z,0.95
2023-11-06T02:10:18.299Z,1.05
2023-11-06T02:12:46.310Z,1.10
2023-11-06T02:15:16.136Z,1.13
2023-11-06T02:17:44.036Z,1.17
2023-11-06T02:20:12.481Z,1.17
2023-11-06T02:22:44.433Z,1.55
2023-11-06T02:25:14.115Z,0.93
2023-11-06T02:27:41.838Z,1.38
2023-11-06T02:30:09.709Z,1.13
2023-11-06T02:32:36.431Z,1.05
2023-11-06T02:35:03.415Z,1.20
2023-11-06T02:37:29.952Z,1.30
2023-11-06T02:39:56.475Z,1.25
2023-11-06T02:42:23.082Z,1.00
2023-11-06T02:44:49.654Z,1.20
2023-11-06T02:47:16.450Z,1.20
2023-11-06T02:49:43.096Z,1.00
2023-11-06T02:52:09.728Z,1.08
2023-11-06T02:54:36.272Z,1.20
2023-11-06T02:57:05.495Z,1.27
2023-11-06T02:59:34.145Z,1.13
2023-11-06T03:02:00.899Z,1.10
2023-11-06T03:04:28.786Z,1.08
2023-11-06T03:06:55.588Z,0.95
2023-11-06T03:09:22.209Z,1.30
2023-11-06T03:11:48.710Z,1.30
2023-11-06T03:14:15.659Z,1.30
2023-11-06T03:16:42.195Z,1.08
2023-11-06T03:19:08.726Z,1.30
2023-11-06T03:21:35.305Z,1.17
2023-11-06T03:24:01.926Z,1.38
2023-11-06T03:26:28.558Z,1.03
2023-11-06T03:28:55.050Z,1.20
2023-11-06T03:31:21.624Z,1.27
2023-11-06T03:33:48.316Z,1.58
2023-11-06T03:36:14.854Z,1.10
2023-11-06T03:38:41.377Z,1.03
2023-11-06T03:41:08.068Z,1.13
2023-11-06T03:43:34.864Z,1.20
2023-11-06T03:46:01.349Z,1.38
2023-11-06T03:48:27.991Z,0.95
2023-11-06T03:50:54.566Z,1.10
2023-11-06T03:53:21.478Z,1.20
2023-11-06T03:55:48.106Z,1.00
2023-11-06T03:58:14.612Z,1.27
2023-11-06T04:00:42.518Z,1.20
2023-11-06T04:03:09.370Z,1.37
2023-11-06T04:05:36.128Z,1.30
2023-11-06T04:08:02.690Z,1.08
2023-11-06T04:10:29.672Z,1.10
2023-11-06T04:12:58.812Z,0.98
2023-11-06T04:15:26.230Z,1.00
2023-11-06T04:17:53.329Z,0.80
2023-11-06T04:20:20.453Z,0.90
2023-11-06T04:22:47.727Z,0.82
2023-11-06T04:25:14.324Z,0.88
2023-11-06T04:27:40.882Z,0.80
2023-11-06T04:30:08.842Z,0.52
2023-11-06T04:32:35.755Z,0.57
2023-11-06T04:35:02.460Z,0.60
2023-11-06T04:37:29.245Z,0.43
2023-11-06T04:39:55.817Z,0.60
2023-11-06T04:42:22.773Z,0.60
2023-11-06T04:44:49.579Z,0.30
2023-11-06T04:47:16.371Z,0.40
2023-11-06T04:49:43.038Z,0.30
2023-11-06T04:52:09.703Z,0.60
2023-11-06T04:54:37.121Z,0.50
2023-11-06T04:57:03.714Z,0.60
2023-11-06T04:59:30.293Z,0.30
2023-11-06T05:01:56.843Z,0.40
2023-11-06T05:04:23.516Z,0.40
2023-11-06T05:06:50.190Z,0.30
2023-11-06T05:09:16.740Z,0.30
2023-11-06T05:11:43.600Z,0.30
2023-11-06T05:14:10.231Z,0.38
2023-11-06T05:16:38.205Z,0.40
2023-11-06T05:19:04.991Z,0.40
2023-11-06T05:21:32.756Z,0.30
2023-11-06T05:23:59.319Z,0.20
2023-11-06T05:26:26.138Z,0.40
2023-11-06T05:28:52.714Z,0.40
2023-11-06T05:31:19.257Z,0.22
2023-11-06T05:33:45.870Z,0.30
2023-11-06T05:36:15.780Z,0.30
2023-11-06T05:38:42.352Z,0.25
2023-11-06T05:41:12.967Z,0.50
2023-11-06T05:43:40.313Z,0.47
2023-11-06T05:46:07.028Z,0.20
2023-11-06T05:48:34.426Z,0.22
2023-11-06T05:51:01.674Z,0.20
2023-11-06T05:53:29.554Z,0.27
2023-11-06T05:55:56.632Z,0.30
2023-11-06T05:58:23.321Z,0.40
2023-11-06T06:00:50.032Z,0.50
2023-11-06T06:03:17.547Z,0.40
2023-11-06T06:05:44.910Z,0.47
2023-11-06T06:08:12.573Z,0.40
2023-11-06T06:10:39.449Z,0.30
2023-11-06T06:13:05.922Z,0.25
2023-11-06T06:15:32.720Z,0.52
2023-11-06T06:17:59.451Z,0.30
2023-11-06T06:20:26.059Z,0.40
2023-11-06T06:22:52.600Z,0.38
2023-11-06T06:25:19.265Z,0.50
2023-11-06T06:27:45.952Z,0.65
2023-11-06T06:30:16.267Z,0.70
2023-11-06T06:32:43.829Z,0.85
2023-11-06T06:35:11.225Z,0.65
2023-11-06T06:37:37.911Z,1.10
2023-11-06T06:40:08.331Z,0.68
2023-11-06T06:42:35.831Z,1.20
2023-11-06T06:45:02.789Z,0.50
2023-11-06T06:47:29.402Z,0.70
2023-11-06T06:49:56.112Z,1.20
2023-11-06T06:52:22.833Z,0.90
2023-11-06T06:54:49.608Z,0.97
2023-11-06T06:57:16.446Z,0.73
2023-11-06T06:59:43.222Z,0.80
2023-11-06T07:02:09.882Z,1.75
2023-11-06T07:04:38.429Z,1.10
2023-11-06T07:07:07.300Z,1.73
2023-11-06T07:09:34.559Z,1.15
2023-11-06T07:12:03.958Z,0.90
2023-11-06T07:14:32.907Z,1.33
2023-11-06T07:17:05.134Z,0.70
2023-11-06T07:19:32.515Z,1.10
2023-11-06T07:22:00.807Z,0.93
2023-11-06T07:24:28.937Z,1.10
2023-11-06T07:26:56.338Z,0.98
2023-11-06T07:29:25.182Z,1.08
2023-11-06T07:31:53.728Z,0.80
2023-11-06T07:34:23.490Z,1.15
2023-11-06T07:36:51.129Z,0.70
2023-11-06T07:39:19.604Z,0.70
2023-11-06T07:41:46.603Z,1.13
2023-11-06T07:44:13.520Z,0.60
2023-11-06T07:46:40.152Z,0.95
2023-11-06T07:49:06.878Z,0.60
2023-11-06T07:51:34.559Z,0.93
2023-11-06T07:54:01.254Z,0.77
2023-11-06T07:56:27.904Z,0.93
2023-11-06T07:58:56.403Z,0.40
2023-11-06T08:01:22.980Z,0.30
2023-11-06T08:03:49.548Z,0.55
2023-11-06T08:06:16.254Z,0.52
2023-11-06T08:08:42.926Z,0.63
2023-11-06T08:11:09.610Z,0.40
2023-11-06T08:13:36.321Z,0.75
2023-11-06T08:16:05.757Z,0.40
2023-11-06T08:18:34.231Z,0.40
2023-11-06T08:21:01.357Z,0.40
2023-11-06T08:23:28.893Z,0.40
2023-11-06T08:25:55.957Z,0.60
2023-11-06T08:28:23.445Z,0.47
2023-11-06T08:30:51.266Z,0.63
2023-11-06T08:33:18.326Z,0.60
2023-11-06T08:35:46.681Z,0.40
2023-11-06T08:38:13.941Z,0.43
2023-11-06T08:40:40.502Z,0.40
2023-11-06T08:43:07.102Z,0.60
2023-11-06T08:45:34.566Z,0.37
2023-11-06T08:48:01.283Z,0.68
2023-11-06T08:50:30.303Z,0.70
2023-11-06T08:52:57.474Z,0.40
2023-11-06T08:55:24.510Z,0.40
2023-11-06T08:57:51.119Z,0.60
2023-11-06T09:00:17.859Z,0.60
2023-11-06T09:02:44.637Z,0.68
2023-11-06T09:05:14.216Z,0.88
2023-11-06T09:07:40.910Z,0.40
2023-11-06T09:10:08.495Z,0.43
2023-11-06T09:12:35.345Z,0.85
2023-11-06T09:15:01.952Z,0.70
2023-11-06T09:17:28.633Z,1.38
2023-11-06T09:19:56.198Z,0.90
2023-11-06T09:22:22.859Z,0.93
2023-11-06T09:24:49.674Z,1.17
2023-11-06T09:27:16.302Z,1.02
2023-11-06T09:29:43.629Z,1.08
2023-11-06T09:32:12.411Z,1.13
2023-11-06T09:34:39.268Z,1.30
2023-11-06T09:37:06.018Z,1.65
2023-11-06T09:39:32.837Z,1.40
2023-11-06T09:41:59.417Z,1.00
2023-11-06T09:44:26.135Z,0.90
2023-11-06T09:46:52.828Z,0.70
2023-11-06T09:49:27.736Z,1.00
2023-11-06T09:51:54.870Z,1.80
2023-11-06T09:54:23.150Z,0.98
2023-11-06T09:56:49.978Z,0.82
2023-11-06T09:59:17.624Z,1.30
2023-11-06T10:01:44.523Z,0.80
2023-11-06T10:04:11.276Z,0.57
2023-11-06T10:06:39.183Z,0.50
2023-11-06T10:09:25.405Z,0.70
2023-11-06T10:11:53.410Z,0.87
2023-11-06T10:14:20.366Z,0.88
2023-11-06T10:16:46.996Z,0.50
2023-11-06T10:19:18.935Z,0.90
2023-11-06T10:21:45.529Z,1.00
2023-11-06T10:24:15.602Z,0.87
2023-11-06T10:26:43.607Z,0.90
2023-11-06T10:29:18.314Z,1.40
2023-11-06T10:31:47.315Z,0.73
2023-11-06T10:34:34.770Z,0.70
2023-11-06T10:37:12.901Z,0.67
2023-11-06T10:39:52.819Z,0.50
2023-11-06T10:42:22.903Z,0.75
2023-11-06T10:44:57.945Z,0.52
2023-11-06T10:47:33.298Z,1.25
2023-11-06T10:50:12.812Z,0.57
2023-11-06T10:52:40.641Z,0.65
2023-11-06T10:55:15.554Z,0.60
2023-11-06T10:57:54.856Z,0.60
2023-11-06T11:00:23.277Z,0.40
2023-11-06T11:02:51.076Z,0.70
2023-11-06T11:05:25.584Z,0.77
2023-11-06T11:07:55.002Z,1.10
2023-11-06T11:10:23.425Z,0.50
2023-11-06T11:12:53.243Z,0.60
2023-11-06T11:15:27.636Z,0.63
2023-11-06T11:18:11.189Z,0.50
2023-11-06T11:21:14.591Z,0.73
2023-11-06T11:23:49.410Z,0.70
2023-11-06T11:26:16.693Z,0.50
2023-11-06T11:29:00.500Z,0.50
2023-11-06T11:31:37.736Z,0.68
2023-11-06T11:34:07.194Z,0.40
2023-11-06T11:36:38.989Z,0.60
2023-11-06T11:39:18.316Z,0.52
2023-11-06T11:42:00.203Z,0.50
2023-11-06T11:44:28.629Z,0.80
2023-11-06T11:46:56.558Z,0.60
2023-11-06T11:49:42.599Z,0.40
2023-11-06T11:52:10.804Z,0.65
2023-11-06T11:54:38.578Z,0.70
2023-11-06T11:57:06.864Z,0.75
2023-11-06T11:59:41.489Z,0.70
2023-11-06T12:02:30.413Z,0.80
2023-11-06T12:05:13.293Z,0.88
2023-11-06T12:07:43.820Z,0.57
2023-11-06T12:10:17.330Z,0.70
2023-11-06T12:12:43.919Z,0.50
2023-11-06T12:15:12.183Z,0.40
2023-11-06T12:17:40.155Z,0.60
2023-11-06T12:20:14.916Z,0.70
2023-11-06T12:22:49.387Z,0.38
2023-11-06T12:25:28.031Z,0.80
2023-11-06T12:27:55.057Z,0.75
2023-11-06T12:30:21.900Z,0.68
2023-11-06T12:32:48.714Z,0.80
2023-11-06T12:35:16.814Z,0.55
2023-11-06T12:38:01.690Z,0.30
2023-11-06T12:40:31.338Z,0.70
2023-11-06T12:43:03.416Z,0.65
2023-11-06T12:45:32.953Z,0.67
2023-11-06T12:48:01.329Z,0.70
2023-11-06T12:50:30.716Z,0.57
2023-11-06T12:52:58.044Z,0.32
2023-11-06T12:55:24.539Z,0.73
2023-11-06T12:57:52.009Z,0.50
2023-11-06T13:00:29.295Z,0.55
2023-11-06T13:02:56.068Z,0.70
2023-11-06T13:05:22.709Z,0.50
2023-11-06T13:07:52.499Z,0.40
2023-11-06T13:10:20.860Z,0.53
2023-11-06T13:12:48.719Z,0.30
2023-11-06T13:15:20.009Z,0.68
2023-11-06T13:17:46.727Z,0.50
2023-11-06T13:20:39.530Z,0.40
2023-11-06T13:23:06.257Z,0.33
2023-11-06T13:25:34.818Z,0.40
2023-11-06T13:28:02.805Z,0.40
2023-11-06T13:30:29.883Z,0.30
2023-11-06T13:32:56.640Z,0.40
2023-11-06T13:35:23.580Z,0.30
2023-11-06T13:37:51.207Z,0.40
2023-11-06T13:40:25.995Z,0.50
2023-11-06T13:42:54.192Z,0.25
2023-11-06T13:45:26.202Z,0.40
2023-11-06T13:47:56.394Z,0.23
2023-11-06T13:50:34.815Z,0.32
2023-11-06T13:53:10.746Z,0.43
2023-11-06T13:55:39.021Z,0.30
2023-11-06T13:58:11.414Z,0.22
2023-11-06T14:00:45.201Z,0.50
2023-11-06T14:03:14.954Z,0.25
2023-11-06T14:05:49.881Z,0.30
2023-11-06T14:08:19.448Z,0.40
2023-11-06T14:10:52.925Z,0.40
2023-11-06T14:13:23.079Z,0.30
2023-11-06T14:15:54.163Z,0.30
2023-11-06T14:18:24.064Z,0.22
2023-11-06T14:20:57.599Z,0.40
2023-11-06T14:23:29.144Z,0.70
2023-11-06T14:25:58.560Z,0.50
2023-11-06T14:28:26.434Z,0.30
2023-11-06T14:30:53.953Z,0.50
2023-11-06T14:33:22.778Z,0.40
2023-11-06T14:35:51.485Z,0.40
2023-11-06T14:38:18.082Z,0.40
2023-11-06T14:40:46.321Z,0.47
2023-11-06T14:43:14.958Z,0.50
2023-11-06T14:45:41.976Z,0.40
2023-11-06T14:48:09.127Z,0.40
2023-11-06T14:50:36.247Z,0.40
2023-11-06T14:53:04.459Z,0.20
2023-11-06T14:55:31.914Z,0.77
2023-11-06T14:57:58.718Z,0.55
2023-11-06T15:00:26.099Z,0.55
2023-11-06T15:02:54.832Z,0.37
2023-11-06T15:05:23.188Z,0.40
2023-11-06T15:07:52.644Z,0.40
2023-11-06T15:10:19.727Z,0.40
2023-11-06T15:12:47.480Z,0.40
2023-11-06T15:15:19.159Z,0.30
2023-11-06T15:17:50.410Z,0.55
2023-11-06T15:20:18.380Z,0.30
2023-11-06T15:22:45.808Z,0.38
2023-11-06T15:25:15.821Z,0.30
2023-11-06T15:27:43.726Z,0.63
2023-11-06T15:30:13.395Z,0.50
2023-11-06T15:32:41.216Z,0.25
2023-11-06T15:35:09.197Z,0.50
2023-11-06T15:37:36.429Z,1.30
2023-11-06T15:40:06.421Z,0.40
2023-11-06T15:42:33.250Z,0.50
2023-11-06T15:45:01.618Z,0.30
2023-11-06T15:47:29.065Z,0.60
2023-11-06T15:49:56.810Z,0.57
2023-11-06T15:52:28.677Z,0.50
2023-11-06T15:54:56.019Z,0.30
2023-11-06T15:57:22.615Z,0.40
2023-11-06T15:59:50.502Z,0.63
2023-11-06T16:02:18.060Z,0.40
2023-11-06T16:04:45.720Z,0.40
2023-11-06T16:07:19.084Z,0.43
2023-11-06T16:09:46.073Z,0.40
2023-11-06T16:12:16.140Z,0.88
2023-11-06T16:14:42.836Z,0.88
2023-11-06T16:17:11.445Z,0.40
2023-11-06T16:19:38.747Z,0.50
2023-11-06T16:22:05.498Z,0.75
2023-11-06T16:24:32.021Z,0.60
2023-11-06T16:27:01.770Z,0.50
2023-11-06T16:29:29.044Z,0.60
2023-11-06T16:31:57.170Z,0.52
2023-11-06T16:34:31.278Z,0.30
2023-11-06T16:37:06.756Z,0.77
2023-11-06T16:39:33.308Z,0.60
2023-11-06T16:41:59.782Z,0.50
2023-11-06T16:44:26.429Z,0.98
2023-11-06T16:46:53.007Z,0.70
2023-11-06T16:49:22.350Z,0.30
2023-11-06T16:51:49.013Z,0.43
2023-11-06T16:54:16.585Z,0.60
2023-11-06T16:56:45.422Z,1.13
2023-11-06T16:59:13.259Z,1.00
2023-11-06T17:01:39.950Z,1.10
2023-11-06T17:04:06.807Z,0.98
2023-11-06T17:06:35.325Z,1.10
2023-11-06T17:09:03.055Z,1.50
2023-11-06T17:11:29.842Z,0.93
2023-11-06T17:13:57.253Z,1.10
2023-11-06T17:16:24.164Z,1.00
2023-11-06T17:18:52.920Z,1.27
2023-11-06T17:21:27.813Z,1.60
2023-11-06T17:23:54.968Z,1.90
2023-11-06T17:26:21.783Z,2.13
2023-11-06T17:28:50.706Z,1.73
2023-11-06T17:31:18.344Z,1.40
2023-11-06T17:33:50.217Z,1.10
2023-11-06T17:36:17.166Z,1.10
2023-11-06T17:38:43.809Z,1.05
2023-11-06T17:41:10.565Z,1.15
2023-11-06T17:43:37.314Z,1.83
2023-11-06T17:46:11.954Z,1.38
2023-11-06T17:48:42.564Z,1.77
2023-11-06T17:51:12.514Z,1.70
2023-11-06T17:53:42.904Z,1.38
2023-11-06T17:56:13.988Z,1.53
2023-11-06T17:58:40.955Z,1.65
2023-11-06T18:01:08.968Z,1.63
2023-11-06T18:03:39.599Z,2.03
2023-11-06T18:06:07.387Z,1.33
2023-11-06T18:08:36.775Z,1.67
2023-11-06T18:11:03.905Z,1.15
2023-11-06T18:13:31.727Z,1.05
2023-11-06T18:16:01.934Z,1.33
2023-11-06T18:18:29.081Z,1.17
2023-11-06T18:20:56.343Z,1.20
2023-11-06T18:23:23.331Z,1.17
2023-11-06T18:25:49.921Z,1.20
2023-11-06T18:28:16.552Z,2.47
2023-11-06T18:30:44.089Z,1.70
2023-11-06T18:33:11.413Z,1.43
2023-11-06T18:35:39.233Z,1.40
2023-11-06T18:38:06.948Z,1.65
2023-11-06T18:40:35.195Z,1.67
2023-11-06T18:43:02.551Z,1.52
2023-11-06T18:45:29.499Z,0.90
2023-11-06T18:47:56.708Z,0.93
2023-11-06T18:50:23.417Z,1.00
2023-11-06T18:52:50.104Z,0.77
2023-11-06T18:55:19.612Z,1.08
2023-11-06T18:57:46.984Z,1.30
2023-11-06T19:00:16.140Z,2.20
2023-11-06T19:02:47.736Z,1.63
2023-11-06T19:05:18.134Z,1.60
2023-11-06T19:07:44.903Z,1.55
2023-11-06T19:10:11.478Z,1.57
2023-11-06T19:12:37.997Z,2.08
2023-11-06T19:15:05.797Z,1.50
2023-11-06T19:17:32.849Z,1.17
2023-11-06T19:19:59.589Z,1.20
2023-11-06T19:22:26.716Z,1.00
2023-11-06T19:24:56.198Z,1.50
2023-11-06T19:27:25.551Z,1.20
2023-11-06T19:29:53.566Z,1.20
2023-11-06T19:32:20.277Z,1.40
2023-11-06T19:34:46.962Z,1.40
2023-11-06T19:37:14.016Z,1.40
2023-11-06T19:39:40.567Z,1.00
2023-11-06T19:42:08.065Z,1.33
2023-11-06T19:44:34.678Z,1.25
2023-11-06T19:47:01.234Z,1.20
2023-11-06T19:49:27.767Z,1.73
2023-11-06T19:51:54.386Z,1.50
2023-11-06T19:54:20.930Z,1.20
2023-11-06T19:56:47.550Z,1.58
2023-11-06T20:01:43.497Z,1.30
2023-11-06T20:04:10.524Z,1.52
2023-11-06T20:06:37.290Z,1.90
2023-11-06T20:09:03.903Z,1.95
2023-11-06T20:11:30.471Z,1.70
2023-11-06T20:13:58.619Z,1.90
2023-11-06T20:16:25.135Z,1.05
2023-11-06T20:18:52.844Z,1.35
2023-11-06T20:21:19.494Z,1.23
2023-11-06T20:23:46.174Z,1.30
2023-11-06T20:26:12.940Z,1.40
2023-11-06T20:28:42.072Z,1.52
2023-11-06T20:31:09.801Z,1.13
2023-11-06T20:33:36.576Z,1.52
2023-11-06T20:36:06.733Z,1.30
2023-11-06T20:38:33.299Z,1.33
2023-11-06T20:40:59.868Z,1.75
2023-11-06T20:43:26.399Z,1.63
2023-11-06T20:45:52.911Z,1.25
2023-11-06T20:48:19.785Z,1.30
2023-11-06T20:50:46.553Z,1.50
2023-11-06T20:53:13.799Z,1.13
2023-11-06T20:55:40.991Z,1.10
2023-11-06T20:58:07.536Z,1.20
2023-11-06T21:00:34.053Z,1.13
2023-11-06T21:03:00.675Z,1.15
2023-11-06T21:05:27.554Z,1.30
2023-11-06T21:07:54.498Z,1.30
2023-11-06T21:10:21.124Z,1.30
2023-11-06T21:12:47.620Z,1.90
2023-11-06T21:15:14.232Z,1.70
2023-11-06T21:17:40.868Z,2.10
2023-11-06T21:20:07.685Z,2.20
2023-11-06T21:22:35.932Z,1.90
2023-11-06T21:25:03.617Z,1.60
2023-11-06T21:27:30.234Z,1.90
2023-11-06T21:29:56.954Z,1.90
2023-11-06T21:32:23.682Z,1.70
2023-11-06T21:34:51.804Z,1.90
2023-11-06T21:37:18.328Z,1.53
2023-11-06T21:39:44.941Z,1.77
2023-11-06T21:42:12.186Z,1.70
2023-11-06T21:44:38.813Z,1.65
2023-11-06T21:47:05.861Z,1.90
2023-11-06T21:49:32.682Z,1.70
2023-11-06T21:51:59.233Z,1.65
2023-11-06T21:54:25.908Z,1.42
2023-11-06T21:56:52.638Z,2.30
2023-11-06T21:59:19.761Z,1.63
2023-11-06T22:01:46.318Z,2.20
2023-11-06T22:04:12.937Z,1.92
2023-11-06T22:06:39.531Z,2.25
2023-11-06T22:09:06.298Z,1.70
2023-11-06T22:11:32.995Z,2.05
2023-11-06T22:14:00.508Z,1.80
2023-11-06T22:16:27.161Z,1.80
2023-11-06T22:18:55.771Z,2.25
2023-11-06T22:21:22.420Z,2.00
2023-11-06T22:23:52.305Z,1.80
2023-11-06T22:26:19.012Z,1.80
2023-11-06T22:28:46.954Z,2.00
2023-11-06T22:31:14.021Z,1.92
2023-11-06T22:33:40.738Z,2.10
2023-11-06T22:36:07.835Z,1.77
2023-11-06T22:38:36.105Z,1.67
2023-11-06T22:41:03.932Z,1.77
2023-11-06T22:43:30.437Z,1.98
2023-11-06T22:45:56.963Z,2.17
2023-11-06T22:48:23.653Z,2.03
2023-11-06T22:50:50.240Z,1.80
2023-11-06T22:53:20.625Z,1.83
2023-11-06T22:55:47.386Z,2.25
2023-11-06T22:58:13.940Z,1.70
2023-11-06T23:00:42.773Z,2.00
2023-11-06T23:03:13.950Z,1.63
2023-11-06T23:05:42.851Z,1.80
2023-11-06T23:08:10.080Z,1.80
2023-11-06T23:10:37.719Z,1.52
2023-11-06T23:13:06.603Z,1.90
2023-11-06T23:15:33.640Z,2.03
2023-11-06T23:18:01.017Z,1.75
2023-11-06T23:20:27.698Z,1.80
2023-11-06T23:22:54.285Z,1.30
2023-11-06T23:25:26.311Z,1.80
2023-11-06T23:27:57.493Z,2.00
2023-11-06T23:30:24.113Z,1.80
2023-11-06T23:32:50.919Z,1.63
2023-11-06T23:35:18.456Z,1.30
2023-11-06T23:37:45.597Z,1.52
2023-11-06T23:40:13.710Z,1.70
2023-11-06T23:42:41.188Z,1.40
2023-11-06T23:45:08.761Z,1.50
2023-11-06T23:47:36.620Z,1.30
2023-11-06T23:50:07.094Z,1.45
2023-11-06T23:52:34.108Z,1.33
2023-11-06T23:55:01.482Z,1.30
2023-11-06T23:57:28.008Z,1.58
2023-11-06T23:59:54.513Z,1.60
